KCWA/CWA METAR and TAF weather

Enter ICAO airport designator
Station Type Date Time Source
KCWA METAR 2019/10/20 18:48 UTC NOAA

KCWA 201848Z 21005KT 10SM FEW140 15/04 A2992


Station Type Date Time Source
KCWA Decoded METAR 2019/10/20 18:48 UTC NOAA

Mosinee / Central Wisconsin, WI, United States (KCWA) 44-47N 089-40W
Oct 20, 2019 - 02:48 PM EDT / 2019.10.20 1848 UTC
Wind: from the SSW (210 degrees) at 6 MPH (5 KT):0
Visibility: 10 mile(s):0
Sky conditions: mostly clear
Temperature: 59 F (15 C)
Dew Point: 39 F (4 C)
Relative Humidity: 47%
Pressure (altimeter): 29.92 in. Hg (1013 hPa)
ob: KCWA 201848Z 21005KT 10SM FEW140 15/04 A2992
cycle: 19

Station Type Date Time Source
KCWA TAF 2019/10/20 18:34 UTC NOAA

TAF KCWA 201732Z 2018/2118 VRB03KT P6SM SCT200
FM202200 10005KT P6SM BKN200
FM210900 10008G15KT P6SM BKN040 WS018/14040KT
FM211300 11013G22KT 6SM -SHRA BR OVC025 WS018/14040KT

Example: see airport list